Time;durP1;ratioP1;P1;durP2;ratioP2;P2;SDS_P1;SDS_P2;PMS_P1;PMS_P2;Temp;Humidity;BMP_temperature;BMP_pressure;BME280_temperature;BME280_humidity;BME280_pressure;Samples;Min_cycle;Max_cycle;Signal;HPM_P1;HPM_P2
2022/11/01 00:01:47;;;;;;;;;;;;;;;16.42;71.21;101023.50;4930834;28;120076;-77
2022/11/01 00:04:13;;;;;;;;;;;;;;;16.44;71.57;101020.25;4913821;28;119659;-77
2022/11/01 00:06:38;;;;;;;;;;;;;;;16.47;71.33;101014.50;4934780;28;120004;-77
2022/11/01 00:09:09;;;;;;;;;;;;;;;16.50;71.33;101012.75;4931716;28;120418;-76
2022/11/01 00:11:34;;;;;;;;;;;;;;;16.52;71.47;101011.03;4923468;28;119444;-77
2022/11/01 00:14:03;;;;;;;;;;;;;;;16.55;71.54;101012.84;4913306;28;119840;-76
2022/11/01 00:16:29;;;;;;;;;;;;;;;16.53;71.69;101007.03;4914237;28;119970;-77
2022/11/01 00:18:55;;;;;;;;;;;;;;;16.53;71.68;100995.94;4932779;28;119525;-77
2022/11/01 00:21:20;;;;;;;;;;;;;;;16.57;71.60;100990.22;4911951;28;119905;-77
2022/11/01 00:23:46;;;;;;;;;;;;;;;16.60;71.63;100988.50;4931611;28;119743;-76
2022/11/01 00:26:15;;;;;;;;;;;;;;;16.61;71.67;100984.47;4927440;28;119758;-77
2022/11/01 00:28:40;;;;;;;;;;;;;;;16.65;71.81;100985.03;4936365;28;119620;-77
2022/11/01 00:31:06;;;;;;;;;;;;;;;16.67;71.83;100971.47;4929254;28;119716;-77
2022/11/01 00:33:31;;;;;;;;;;;;;;;16.68;71.71;100950.84;4932063;28;119544;-77
2022/11/01 00:36:00;;;;;;;;;;;;;;;16.69;71.55;100946.81;4932716;28;119610;-77
2022/11/01 00:38:27;;;;;;;;;;;;;;;16.67;71.67;100946.56;4893235;28;119524;-77
2022/11/01 00:40:53;;;;;;;;;;;;;;;16.69;71.84;100947.59;4912707;28;119945;-77
2022/11/01 00:43:19;;;;;;;;;;;;;;;16.71;71.54;100956.16;4930112;28;119682;-77
2022/11/01 00:45:44;;;;;;;;;;;;;;;16.74;71.85;100951.66;4927211;28;119815;-77
2022/11/01 00:48:11;;;;;;;;;;;;;;;16.75;71.88;100944.88;4911741;28;119529;-77
2022/11/01 00:50:37;;;;;;;;;;;;;;;16.77;71.84;100953.44;4917643;28;120002;-77
2022/11/01 00:53:02;;;;;;;;;;;;;;;16.77;71.94;100945.16;4925566;28;119962;-76
2022/11/01 00:55:28;;;;;;;;;;;;;;;16.77;71.72;100943.13;4932390;28;119690;-77
2022/11/01 00:57:53;;;;;;;;;;;;;;;16.77;71.75;100947.91;4897633;28;120891;-77
2022/11/01 01:00:19;;;;;;;;;;;;;;;16.79;71.60;100945.41;4932073;28;120025;-77
2022/11/01 01:02:45;;;;;;;;;;;;;;;16.79;71.74;100926.78;4897411;28;119731;-77
2022/11/01 01:05:10;;;;;;;;;;;;;;;16.83;71.79;100924.59;4920731;28;119630;-76
2022/11/01 01:07:36;;;;;;;;;;;;;;;16.85;71.74;100922.09;4912107;28;119630;-77
2022/11/01 01:10:07;;;;;;;;;;;;;;;16.85;71.46;100922.09;4915338;28;120021;-77
2022/11/01 01:12:32;;;;;;;;;;;;;;;16.84;71.58;100912.25;4937956;28;119791;-77
2022/11/01 01:14:58;;;;;;;;;;;;;;;16.84;71.50;100911.50;4917472;28;120000;-77
2022/11/01 01:17:24;;;;;;;;;;;;;;;16.85;71.76;100915.78;4914710;28;120373;-77
2022/11/01 01:19:49;;;;;;;;;;;;;;;16.84;71.70;100900.41;4929718;28;120083;-77
2022/11/01 01:22:15;;;;;;;;;;;;;;;16.82;71.69;100898.13;4917779;28;119451;-77
2022/11/01 01:24:44;;;;;;;;;;;;;;;16.82;71.38;100900.91;4934962;28;119610;-77
2022/11/01 01:27:13;;;;;;;;;;;;;;;16.80;71.66;100895.09;4934749;28;119835;-76
2022/11/01 01:29:43;;;;;;;;;;;;;;;16.80;71.75;100897.88;4927755;28;119437;-76
2022/11/01 01:32:15;;;;;;;;;;;;;;;16.80;71.87;100886.03;4935360;28;119979;-77
2022/11/01 01:34:40;;;;;;;;;;;;;;;16.83;71.92;100879.50;4938563;28;120225;-76
2022/11/01 01:37:07;;;;;;;;;;;;;;;16.84;71.84;100875.47;4935297;28;120132;-77
2022/11/01 01:39:33;;;;;;;;;;;;;;;16.82;71.70;100864.88;4932143;28;119524;-77
2022/11/01 01:41:59;;;;;;;;;;;;;;;16.84;71.85;100861.63;4917006;28;119665;-76
2022/11/01 01:44:42;;;;;;;;;;;;;;;16.83;71.72;100857.34;4934925;28;119576;-76
2022/11/01 01:47:10;;;;;;;;;;;;;;;16.84;71.74;100864.41;4934099;28;120250;-77
2022/11/01 01:49:35;;;;;;;;;;;;;;;16.85;71.97;100860.38;4920797;28;120424;-77
2022/11/01 01:52:01;;;;;;;;;;;;;;;16.86;71.85;100848.03;4935103;28;119465;-77
2022/11/01 01:54:27;;;;;;;;;;;;;;;16.88;71.87;100842.78;4917306;28;120931;-76
2022/11/01 01:56:53;;;;;;;;;;;;;;;16.91;71.82;100841.03;4921340;28;119574;-77
2022/11/01 01:59:47;;;;;;;;;;;;;;;16.89;71.72;100827.66;4876558;28;120085;-77
2022/11/01 02:02:13;;;;;;;;;;;;;;;16.91;71.72;100816.09;4921339;28;120521;-77
2022/11/01 02:04:42;;;;;;;;;;;;;;;16.89;71.76;100813.81;4935534;28;119402;-77
2022/11/01 02:07:08;;;;;;;;;;;;;;;16.90;71.70;100809.78;4933772;28;120040;-77
2022/11/01 02:09:33;;;;;;;;;;;;;;;16.89;71.69;100794.41;4934458;28;119384;-77
2022/11/01 02:11:59;;;;;;;;;;;;;;;16.88;71.55;100804.75;4934777;28;119519;-77
2022/11/01 02:14:44;;;;;;;;;;;;;;;16.87;71.66;100808.00;4906807;28;118943;-77
2022/11/01 02:17:13;;;;;;;;;;;;;;;16.88;71.83;100801.97;4923100;28;119405;-77
2022/11/01 02:19:57;;;;;;;;;;;;;;;16.89;71.51;100805.50;4926141;28;120428;-76
2022/11/01 02:22:25;;;;;;;;;;;;;;;16.89;71.70;100799.97;4914770;28;119631;-77
2022/11/01 02:25:11;;;;;;;;;;;;;;;16.91;71.75;100805.00;4924387;28;119360;-77
2022/11/01 02:27:59;;;;;;;;;;;;;;;16.92;71.81;100784.38;4933743;28;120023;-77
2022/11/01 02:30:33;;;;;;;;;;;;;;;16.91;71.85;100774.53;4933414;28;119960;-77
2022/11/01 02:32:58;;;;;;;;;;;;;;;16.91;72.01;100780.84;4933751;28;119494;-77
2022/11/01 02:35:38;;;;;;;;;;;;;;;16.91;71.78;100775.28;4933629;28;119700;-77
2022/11/01 02:38:33;;;;;;;;;;;;;;;16.92;71.91;100765.72;4930382;28;119941;-77
2022/11/01 02:41:02;;;;;;;;;;;;;;;16.92;71.87;100757.41;4931133;28;120657;-76
2022/11/01 02:43:30;;;;;;;;;;;;;;;16.93;71.86;100747.84;4934599;28;119395;-77
2022/11/01 02:45:56;;;;;;;;;;;;;;;16.95;71.73;100748.13;4916664;28;119609;-77
2022/11/01 02:48:23;;;;;;;;;;;;;;;16.96;71.80;100741.31;4920832;28;119488;-77
2022/11/01 02:50:55;;;;;;;;;;;;;;;16.95;71.66;100731.50;4909620;28;119622;-77
2022/11/01 02:53:21;;;;;;;;;;;;;;;16.97;71.89;100734.53;4917129;28;119652;-77
2022/11/01 02:55:49;;;;;;;;;;;;;;;16.97;71.63;100728.97;4932067;28;120525;-77
2022/11/01 02:58:18;;;;;;;;;;;;;;;16.97;71.64;100733.78;4899332;28;119802;-77
2022/11/01 03:00:55;;;;;;;;;;;;;;;16.97;71.68;100733.78;4933698;28;119611;-77
2022/11/01 03:03:29;;;;;;;;;;;;;;;16.94;71.22;100721.66;4936121;28;119398;-77
2022/11/01 03:06:03;;;;;;;;;;;;;;;16.94;71.76;100729.97;4932463;28;119846;-77
2022/11/01 03:08:34;;;;;;;;;;;;;;;16.93;71.73;100717.38;4933087;28;120771;-77
2022/11/01 03:11:07;;;;;;;;;;;;;;;16.93;71.64;100716.63;4934108;28;119788;-76
2022/11/01 03:13:33;;;;;;;;;;;;;;;16.91;71.44;100719.88;4921443;28;119784;-77
2022/11/01 03:16:07;;;;;;;;;;;;;;;16.92;71.61;100715.09;4922764;28;119770;-77
2022/11/01 03:18:34;;;;;;;;;;;;;;;16.93;71.41;100713.84;4918288;28;119719;-77
2022/11/01 03:21:16;;;;;;;;;;;;;;;16.91;71.24;100711.56;4928611;28;120447;-76
2022/11/01 03:23:44;;;;;;;;;;;;;;;16.91;71.35;100696.97;4925951;28;120772;-77
2022/11/01 03:26:14;;;;;;;;;;;;;;;16.91;71.42;100699.72;4935890;28;119683;-77
2022/11/01 03:28:43;;;;;;;;;;;;;;;16.89;71.29;100689.16;4928481;28;120213;-77
2022/11/01 03:31:29;;;;;;;;;;;;;;;16.87;71.52;100697.19;4924187;28;119823;-77
2022/11/01 03:34:02;;;;;;;;;;;;;;;16.88;71.45;100693.16;4934155;28;119934;-77
2022/11/01 03:36:35;;;;;;;;;;;;;;;16.85;71.50;100683.84;4894269;28;122501;-77
2022/11/01 03:39:36;;;;;;;;;;;;;;;16.86;71.24;100690.13;4930102;28;119681;-77
2022/11/01 03:42:04;;;;;;;;;;;;;;;16.88;71.52;100684.84;4848672;28;120168;-77
2022/11/01 03:44:33;;;;;;;;;;;;;;;16.85;71.37;100688.63;4910201;28;119396;-77
2022/11/01 03:46:58;;;;;;;;;;;;;;;16.85;71.39;100680.31;4928624;28;119403;-77
2022/11/01 03:49:24;;;;;;;;;;;;;;;16.86;71.58;100665.97;4928353;28;119979;-77
2022/11/01 03:51:49;;;;;;;;;;;;;;;16.85;71.46;100664.44;4920263;28;119834;-77
2022/11/01 03:54:15;;;;;;;;;;;;;;;16.86;71.45;100663.19;4925585;28;119614;-77
2022/11/01 03:56:41;;;;;;;;;;;;;;;16.85;71.24;100660.91;4920407;28;119969;-77
2022/11/01 03:59:08;;;;;;;;;;;;;;;16.80;71.34;100650.56;4932268;28;119929;-77
2022/11/01 04:01:34;;;;;;;;;;;;;;;16.79;71.36;100646.25;4932462;28;120163;-77
2022/11/01 04:04:00;;;;;;;;;;;;;;;16.76;71.37;100641.69;4928986;28;119519;-77
2022/11/01 04:06:25;;;;;;;;;;;;;;;16.72;70.94;100632.88;4922381;28;119945;-77
2022/11/01 04:08:51;;;;;;;;;;;;;;;16.70;71.40;100627.81;4936543;28;119487;-77
2022/11/01 04:11:16;;;;;;;;;;;;;;;16.69;71.28;100658.78;4926572;28;119482;-77
2022/11/01 04:13:42;;;;;;;;;;;;;;;16.66;71.20;100655.00;4929258;28;119791;-77
2022/11/01 04:21:42;;;;;;;;;;;;;;;16.61;71.53;100646.63;4928598;28;119410;-77
2022/11/01 04:24:08;;;;;;;;;;;;;;;16.61;71.61;100647.38;4917277;28;120232;-77
2022/11/01 04:26:34;;;;;;;;;;;;;;;16.61;71.57;100627.25;4930997;28;119589;-76
2022/11/01 04:28:59;;;;;;;;;;;;;;;16.61;71.56;100616.16;4925427;28;119878;-77
2022/11/01 04:31:29;;;;;;;;;;;;;;;16.61;71.56;100605.09;4936282;28;119389;-77
2022/11/01 04:33:55;;;;;;;;;;;;;;;16.61;71.67;100613.41;4931468;28;119984;-77
2022/11/01 04:36:21;;;;;;;;;;;;;;;16.60;71.71;100620.19;4914493;28;121994;-77
2022/11/01 04:38:48;;;;;;;;;;;;;;;16.61;71.87;100614.16;4931602;28;119640;-77
2022/11/01 04:41:21;;;;;;;;;;;;;;;16.62;71.73;100598.28;4924618;28;119476;-76
2022/11/01 04:43:47;;;;;;;;;;;;;;;16.63;71.88;100608.88;4927063;28;120073;-77
2022/11/01 04:46:17;;;;;;;;;;;;;;;16.65;71.81;100609.13;4932273;28;119728;-77
2022/11/01 04:48:42;;;;;;;;;;;;;;;16.67;71.65;100600.38;4931033;28;119570;-77
2022/11/01 04:51:08;;;;;;;;;;;;;;;16.70;71.79;100607.69;4915792;28;119672;-77
2022/11/01 04:53:34;;;;;;;;;;;;;;;16.69;71.80;100608.94;4921790;28;119832;-77
2022/11/01 04:56:03;;;;;;;;;;;;;;;16.70;71.80;100597.34;4935170;28;120117;-77
2022/11/01 04:58:30;;;;;;;;;;;;;;;16.72;71.78;100599.63;4913775;28;119612;-77
2022/11/01 05:00:56;;;;;;;;;;;;;;;16.72;71.77;100596.84;4936200;28;119366;-77
2022/11/01 05:03:21;;;;;;;;;;;;;;;16.72;71.49;100603.16;4934764;28;120163;-76
2022/11/01 05:06:10;;;;;;;;;;;;;;;16.73;71.66;100595.59;4905127;28;120205;-77
2022/11/01 05:08:36;;;;;;;;;;;;;;;16.75;71.79;100601.41;4915632;28;119690;-77
2022/11/01 05:11:01;;;;;;;;;;;;;;;16.77;71.76;100604.44;4931300;28;120192;-77
2022/11/01 05:13:27;;;;;;;;;;;;;;;16.78;71.73;100605.97;4936208;28;119588;-77
2022/11/01 05:15:52;;;;;;;;;;;;;;;16.79;71.81;100613.00;4933527;28;119676;-77
2022/11/01 05:18:18;;;;;;;;;;;;;;;16.79;71.60;100615.78;4917380;28;119516;-77
2022/11/01 05:20:44;;;;;;;;;;;;;;;16.83;71.88;100608.03;4935765;28;119424;-77
2022/11/01 05:23:09;;;;;;;;;;;;;;;16.85;71.76;100602.75;4935309;28;120066;-77
2022/11/01 05:25:35;;;;;;;;;;;;;;;16.84;71.55;100604.75;4917604;28;120145;-77
2022/11/01 05:28:02;;;;;;;;;;;;;;;16.84;71.74;100595.69;4917440;28;119649;-77
2022/11/01 05:30:27;;;;;;;;;;;;;;;16.85;71.56;100588.88;4935513;28;119497;-77
2022/11/01 05:32:57;;;;;;;;;;;;;;;16.83;71.43;100592.16;4935674;28;119639;-76
2022/11/01 05:35:23;;;;;;;;;;;;;;;16.81;71.57;100588.38;4935234;28;119574;-76
2022/11/01 05:37:48;;;;;;;;;;;;;;;16.80;71.76;100586.84;4905987;28;121839;-77
2022/11/01 05:40:14;;;;;;;;;;;;;;;16.81;71.57;100571.75;4934213;28;119778;-77
2022/11/01 05:42:39;;;;;;;;;;;;;;;16.82;71.53;100573.25;4934732;28;119618;-77
2022/11/01 05:45:05;;;;;;;;;;;;;;;16.82;71.77;100568.47;4933457;28;120009;-77
2022/11/01 05:47:31;;;;;;;;;;;;;;;16.83;71.43;100581.06;4935078;28;119709;-77
2022/11/01 05:49:56;;;;;;;;;;;;;;;16.81;71.43;100560.66;4919538;28;119976;-77
2022/11/01 05:52:30;;;;;;;;;;;;;;;16.79;71.43;100555.59;4916458;28;119553;-77
2022/11/01 05:55:15;;;;;;;;;;;;;;;16.80;71.57;100564.69;4914339;28;119725;-77
2022/11/01 05:57:41;;;;;;;;;;;;;;;16.78;71.56;100562.41;4917740;28;119659;-77
2022/11/01 06:00:06;;;;;;;;;;;;;;;16.78;71.80;100572.72;4919644;28;120052;-77
2022/11/01 06:02:38;;;;;;;;;;;;;;;16.79;71.66;100574.22;4930950;28;120024;-77
2022/11/01 06:05:03;;;;;;;;;;;;;;;16.81;71.62;100560.66;4934228;28;119714;-76
2022/11/01 06:07:29;;;;;;;;;;;;;;;16.83;71.71;100574.78;4917200;28;119821;-76
2022/11/01 06:09:54;;;;;;;;;;;;;;;16.83;71.67;100586.63;4917088;28;119581;-77
2022/11/01 06:12:22;;;;;;;;;;;;;;;16.84;71.79;100582.59;4929465;28;119621;-76
2022/11/01 06:14:47;;;;;;;;;;;;;;;16.84;71.71;100576.28;4918692;28;119426;-77
2022/11/01 06:17:13;;;;;;;;;;;;;;;16.82;71.65;100576.78;4930856;28;119969;-77
2022/11/01 06:19:38;;;;;;;;;;;;;;;16.84;71.72;100576.28;4939213;28;119489;-77
2022/11/01 06:22:04;;;;;;;;;;;;;;;16.84;71.87;100565.97;4933234;28;120139;-77
2022/11/01 06:24:30;;;;;;;;;;;;;;;16.86;71.67;100565.47;4929327;28;120296;-77
2022/11/01 06:26:56;;;;;;;;;;;;;;;16.86;71.74;100548.84;4923412;28;119874;-77
2022/11/01 06:29:21;;;;;;;;;;;;;;;16.87;71.56;100550.38;4928872;28;119530;-77
2022/11/01 06:31:48;;;;;;;;;;;;;;;16.88;71.72;100554.66;4924386;28;119630;-76
2022/11/01 06:34:13;;;;;;;;;;;;;;;16.88;71.74;100562.97;4931168;28;120033;-77
2022/11/01 06:36:40;;;;;;;;;;;;;;;16.87;71.71;100567.75;4917199;28;120078;-77
2022/11/01 06:39:06;;;;;;;;;;;;;;;16.90;71.94;100576.31;4933851;28;119511;-77
2022/11/01 06:41:31;;;;;;;;;;;;;;;16.92;71.92;100577.34;4936791;28;120139;-77
2022/11/01 06:43:57;;;;;;;;;;;;;;;16.95;71.94;100564.50;4931894;28;119618;-77
2022/11/01 06:46:22;;;;;;;;;;;;;;;16.97;71.76;100559.22;4903213;28;119849;-77
2022/11/01 06:48:48;;;;;;;;;;;;;;;16.96;71.85;100558.44;4924388;28;120271;-77
2022/11/01 06:51:13;;;;;;;;;;;;;;;16.98;71.88;100563.50;4931745;28;120250;-77
2022/11/01 06:53:39;;;;;;;;;;;;;;;16.98;71.92;100567.03;4927171;28;119807;-77
2022/11/01 06:56:05;;;;;;;;;;;;;;;16.99;72.03;100565.00;4929492;28;119637;-77
2022/11/01 06:59:04;;;;;;;;;;;;;;;17.00;72.16;100570.06;4931195;28;119843;-77
2022/11/01 07:01:29;;;;;;;;;;;;;;;17.01;72.06;100571.56;4904935;28;119844;-77
2022/11/01 07:03:55;;;;;;;;;;;;;;;17.02;71.99;100572.31;4934825;28;120849;-77
2022/11/01 07:06:23;;;;;;;;;;;;;;;17.03;72.16;100568.28;4928705;28;120110;-77
2022/11/01 07:08:48;;;;;;;;;;;;;;;17.06;72.02;100570.84;4931874;28;119761;-77
2022/11/01 07:11:14;;;;;;;;;;;;;;;17.07;72.08;100563.31;4930253;28;119403;-77
2022/11/01 07:13:39;;;;;;;;;;;;;;;17.09;72.00;100564.31;4920357;28;119759;-77
2022/11/01 07:16:08;;;;;;;;;;;;;;;17.11;72.11;100567.34;4926510;28;120960;-76
2022/11/01 07:18:43;;;;;;;;;;;;;;;17.14;72.05;100571.13;4911259;28;119739;-77
2022/11/01 07:21:09;;;;;;;;;;;;;;;17.18;72.26;100575.16;4933235;28;119765;-77
2022/11/01 07:23:35;;;;;;;;;;;;;;;17.23;71.99;100575.69;4932435;28;119515;-77
2022/11/01 07:26:01;;;;;;;;;;;;;;;17.26;72.01;100580.22;4934341;28;119334;-76
2022/11/01 07:28:27;;;;;;;;;;;;;;;17.27;71.90;100568.66;4932867;28;119622;-77
2022/11/01 07:30:53;;;;;;;;;;;;;;;17.27;71.88;100590.84;4933535;28;119592;-77
2022/11/01 07:33:19;;;;;;;;;;;;;;;17.26;71.88;100585.78;4915874;28;119664;-77
2022/11/01 07:35:45;;;;;;;;;;;;;;;17.27;71.86;100578.97;4932604;28;119587;-77
2022/11/01 07:38:10;;;;;;;;;;;;;;;17.27;71.74;100576.19;4928968;28;119859;-77
2022/11/01 07:40:36;;;;;;;;;;;;;;;17.28;71.77;100561.88;4920552;28;119614;-77
2022/11/01 07:43:02;;;;;;;;;;;;;;;17.32;72.04;100572.72;4928373;28;120050;-77
2022/11/01 07:45:29;;;;;;;;;;;;;;;17.33;71.89;100572.19;4931598;28;119959;-77
2022/11/01 07:48:05;;;;;;;;;;;;;;;17.36;71.75;100565.66;4932754;28;119819;-77
2022/11/01 07:50:32;;;;;;;;;;;;;;;17.41;71.93;100572.47;4930591;28;119521;-77
2022/11/01 07:52:58;;;;;;;;;;;;;;;17.43;71.72;100567.19;4930214;28;119363;-77
2022/11/01 07:55:24;;;;;;;;;;;;;;;17.48;71.94;100572.72;4928437;28;120154;-77
2022/11/01 07:57:49;;;;;;;;;;;;;;;17.54;71.97;100566.47;4931468;28;119839;-77
2022/11/01 08:00:15;;;;;;;;;;;;;;;17.58;71.70;100570.50;4926396;28;120414;-77
2022/11/01 08:02:40;;;;;;;;;;;;;;;17.62;71.51;100567.47;4926992;28;121363;-77
2022/11/01 08:05:08;;;;;;;;;;;;;;;17.63;71.39;100571.75;4898231;28;121109;-77
2022/11/01 08:07:40;;;;;;;;;;;;;;;17.64;71.39;100574.03;4921899;28;119743;-76
2022/11/01 08:10:08;;;;;;;;;;;;;;;17.67;71.40;100578.59;4916870;28;120446;-77
2022/11/01 08:12:33;;;;;;;;;;;;;;;17.70;71.34;100577.59;4924976;28;120032;-77
2022/11/01 08:15:01;;;;;;;;;;;;;;;17.74;71.37;100575.34;4910536;28;119764;-76
2022/11/01 08:17:30;;;;;;;;;;;;;;;17.76;71.06;100585.94;4926439;28;119914;-76
2022/11/01 08:19:55;;;;;;;;;;;;;;;17.76;71.22;100575.59;4924770;28;119976;-77
2022/11/01 08:22:21;;;;;;;;;;;;;;;17.82;71.24;100586.72;4923411;28;120911;-77
2022/11/01 08:24:46;;;;;;;;;;;;;;;17.89;70.84;100594.53;4928738;28;119734;-77
2022/11/01 08:27:12;;;;;;;;;;;;;;;17.95;70.92;100584.19;4930835;28;119528;-77
2022/11/01 08:29:38;;;;;;;;;;;;;;;18.00;70.74;100586.22;4935004;28;119984;-77
2022/11/01 08:32:03;;;;;;;;;;;;;;;18.06;70.88;100584.19;4933201;28;119833;-77
2022/11/01 08:34:32;;;;;;;;;;;;;;;18.11;70.51;100588.22;4917795;28;120030;-77
2022/11/01 08:36:57;;;;;;;;;;;;;;;18.16;70.51;100584.69;4911479;28;120454;-77
2022/11/01 08:39:41;;;;;;;;;;;;;;;18.21;70.26;100597.81;4930371;28;119637;-77
2022/11/01 08:42:08;;;;;;;;;;;;;;;18.26;70.24;100596.31;4931948;28;121282;-77
2022/11/01 08:44:33;;;;;;;;;;;;;;;18.28;70.10;100585.44;4933138;28;119771;-77
2022/11/01 08:47:00;;;;;;;;;;;;;;;18.29;69.80;100593.28;4926143;28;119774;-77
2022/11/01 08:49:28;;;;;;;;;;;;;;;18.29;69.79;100598.06;4926002;28;121153;-77
2022/11/01 08:51:54;;;;;;;;;;;;;;;18.31;69.78;100593.53;4929413;28;119837;-77
2022/11/01 08:54:20;;;;;;;;;;;;;;;18.35;69.79;100604.38;4926104;28;119742;-76
2022/11/01 08:56:45;;;;;;;;;;;;;;;18.37;69.57;100597.03;4926886;28;119593;-77
2022/11/01 08:59:11;;;;;;;;;;;;;;;18.40;69.60;100595.28;4924481;28;119955;-77
2022/11/01 09:01:41;;;;;;;;;;;;;;;18.43;69.99;100597.03;4909033;28;120028;-77
2022/11/01 09:04:07;;;;;;;;;;;;;;;18.46;69.28;100595.28;4923261;28;119880;-77
2022/11/01 09:06:33;;;;;;;;;;;;;;;18.48;69.25;100604.63;4924463;28;119854;-77
2022/11/01 09:08:59;;;;;;;;;;;;;;;18.51;69.43;100603.59;4923179;28;120310;-77
2022/11/01 09:11:25;;;;;;;;;;;;;;;18.55;69.24;100604.09;4916813;28;121258;-77
2022/11/01 09:13:56;;;;;;;49.40;28.65;;;;;;;18.61;69.99;100606.84;4932918;28;119934;-76
2022/11/01 09:16:40;;;;;;;46.95;28.15;;;;;;;18.66;70.08;100606.13;4926448;28;119659;-77
2022/11/01 09:19:07;;;;;;;44.55;26.95;;;;;;;18.75;69.94;100605.09;4918920;28;119593;-77
2022/11/01 09:21:33;;;;;;;45.55;26.55;;;;;;;18.83;69.74;100609.63;4924602;28;119770;-76
2022/11/01 09:24:00;;;;;;;47.83;26.85;;;;;;;18.90;69.34;100606.31;4927156;28;119707;-76
2022/11/01 09:26:26;;;;;;;44.22;25.05;;;;;;;18.94;68.76;100604.03;4927979;28;119975;-76
2022/11/01 09:28:54;;;;;;;48.10;25.25;;;;;;;19.00;68.69;100607.56;4906640;28;120180;-77
2022/11/01 09:31:20;;;;;;;45.10;24.27;;;;;;;19.04;68.32;100603.75;4927466;28;120608;-77
2022/11/01 09:33:46;;;;;;;44.67;24.80;;;;;;;19.09;68.33;100614.09;4928192;28;119720;-77
2022/11/01 09:36:14;;;;;;;42.28;23.52;;;;;;;19.13;68.39;100623.66;4932960;28;120127;-77
2022/11/01 09:38:39;;;;;;;41.42;23.50;;;;;;;19.15;67.65;100625.94;4930393;28;119768;-76
2022/11/01 09:41:41;;;;;;;34.45;20.90;;;;;;;19.13;67.55;100620.13;4930603;28;120189;-77
2022/11/01 09:44:15;;;;;;;37.28;19.85;;;;;;;19.14;67.95;100618.88;4930003;28;119881;-77
2022/11/01 09:46:50;;;;;;;38.08;19.45;;;;;;;19.18;67.67;100630.50;4928611;28;119688;-77
2022/11/01 09:49:27;;;;;;;36.53;18.65;;;;;;;19.19;67.50;100637.56;4912307;28;120837;-77
2022/11/01 09:51:53;;;;;;;28.65;16.95;;;;;;;19.20;67.17;100627.97;4914074;28;119821;-77
2022/11/01 09:54:21;;;;;;;24.88;15.20;;;;;;;19.19;67.28;100637.56;4930166;28;120078;-77
2022/11/01 09:56:58;;;;;;;26.70;15.00;;;;;;;19.18;67.29;100642.38;4928845;28;120202;-77
2022/11/01 09:59:42;;;;;;;21.02;13.48;;;;;;;19.20;66.64;100644.66;4933472;28;120667;-77
2022/11/01 10:02:35;;;;;;;23.02;12.85;;;;;;;19.20;66.39;100644.66;4930754;28;120305;-77
2022/11/01 10:05:10;;;;;;;23.35;13.25;;;;;;;19.20;66.59;100636.31;4908721;28;120028;-77
2022/11/01 10:08:01;;;;;;;20.17;11.00;;;;;;;19.20;66.12;100655.78;4915025;28;120014;-77
2022/11/01 10:10:38;;;;;;;19.52;9.25;;;;;;;19.18;65.74;100670.19;4928840;28;120390;-76
2022/11/01 10:13:31;;;;;;;18.83;8.95;;;;;;;19.18;64.98;100672.97;4928884;28;119870;-76
2022/11/01 10:16:03;;;;;;;12.93;6.97;;;;;;;19.18;64.12;100669.44;4927948;28;119642;-77
2022/11/01 10:18:31;;;;;;;21.42;6.40;;;;;;;19.16;63.90;100680.28;4926666;28;120206;-77
2022/11/01 10:21:10;;;;;;;14.38;6.32;;;;;;;19.17;63.16;100676.25;4929491;28;119680;-76
2022/11/01 10:23:47;;;;;;;18.70;5.82;;;;;;;19.20;63.00;100683.56;4928738;28;120159;-76
2022/11/01 10:26:49;;;;;;;10.30;4.30;;;;;;;19.23;62.16;100690.88;4876098;28;119813;-76
2022/11/01 10:29:22;;;;;;;11.98;4.80;;;;;;;19.27;62.17;100680.25;4907550;28;120349;-76
2022/11/01 10:31:52;;;;;;;11.52;4.45;;;;;;;19.29;61.48;100691.63;4929024;28;119689;-76
2022/11/01 10:34:23;;;;;;;12.75;4.78;;;;;;;19.30;61.38;100679.97;4927841;28;120618;-77
2022/11/01 10:36:50;;;;;;;15.63;4.72;;;;;;;19.26;60.58;100693.41;4924308;28;119785;-77
2022/11/01 10:39:40;;;;;;;16.85;3.63;;;;;;;19.27;59.99;100691.38;4928108;28;121444;-76
2022/11/01 10:42:14;;;;;;;16.15;4.05;;;;;;;19.25;59.57;100691.88;4929885;28;119818;-76
2022/11/01 10:44:45;;;;;;;17.77;3.40;;;;;;;19.24;58.45;100686.84;4916675;28;119753;-77
2022/11/01 10:47:18;;;;;;;13.52;3.42;;;;;;;19.23;58.44;100690.88;4929222;28;119654;-77
2022/11/01 10:49:52;;;;;;;15.40;3.63;;;;;;;19.18;58.44;100694.44;4913366;28;119753;-76
2022/11/01 10:52:26;;;;;;;11.88;2.97;;;;;;;19.18;58.26;100686.09;4929117;28;120458;-77
2022/11/01 10:55:01;;;;;;;13.05;2.90;;;;;;;19.11;58.38;100698.50;4927947;28;119802;-76
2022/11/01 10:57:36;;;;;;;13.23;2.42;;;;;;;19.15;58.28;100701.00;4928569;28;119726;-77
2022/11/01 11:00:10;;;;;;;14.10;2.70;;;;;;;19.19;57.88;100699.50;4927345;28;120791;-76
2022/11/01 11:02:43;;;;;;;10.95;2.95;;;;;;;19.16;57.68;100700.50;4915568;28;120460;-76
2022/11/01 11:05:13;;;;;;;13.50;2.93;;;;;;;19.15;57.45;100701.75;4911860;28;120449;-76
2022/11/01 11:07:40;;;;;;;9.40;2.70;;;;;;;19.10;57.03;100696.22;4927800;28;120434;-77
2022/11/01 11:10:16;;;;;;;10.38;2.67;;;;;;;19.15;57.42;100704.53;4927519;28;119586;-76
2022/11/01 11:12:43;;;;;;;13.35;3.03;;;;;;;19.14;57.05;100685.59;4926848;28;120012;-77
2022/11/01 11:15:22;;;;;;;14.57;3.20;;;;;;;19.17;57.67;100701.28;4912227;28;119914;-76
2022/11/01 11:17:56;;;;;;;13.55;3.33;;;;;;;19.15;57.42;100707.31;4928112;28;119731;-76
2022/11/01 11:20:29;;;;;;;13.38;2.40;;;;;;;19.15;57.15;100706.56;4928448;28;120084;-77
2022/11/01 11:22:55;;;;;;;8.00;2.67;;;;;;;19.07;57.28;100700.78;4929125;28;120084;-77
2022/11/01 11:25:31;;;;;;;7.38;2.65;;;;;;;19.17;57.83;100712.41;4916132;28;120020;-76
2022/11/01 11:27:59;;;;;;;13.55;3.00;;;;;;;19.25;58.11;100718.94;4927669;28;119762;-76
2022/11/01 11:30:28;;;;;;;13.80;3.10;;;;;;;19.32;57.44;100713.59;4918811;28;119618;-77
2022/11/01 11:32:54;;;;;;;13.25;2.90;;;;;;;19.38;56.50;100713.56;4912152;28;119671;-77
2022/11/01 11:35:23;;;;;;;11.98;3.22;;;;;;;19.38;56.31;100730.25;4914844;28;119879;-77
2022/11/01 11:37:55;;;;;;;14.50;2.78;;;;;;;19.38;55.94;100718.38;4914552;28;119653;-77
2022/11/01 11:40:26;;;;;;;12.45;2.75;;;;;;;19.51;55.67;100718.59;4929368;28;120488;-76
2022/11/01 11:43:32;;;;;;;11.50;2.92;;;;;;;19.66;55.37;100737.81;4929502;28;119764;-76
2022/11/01 11:46:27;;;;;;;16.33;3.35;;;;;;;19.69;55.06;100712.50;4914544;28;120610;-77
2022/11/01 11:49:00;;;;;;;15.60;2.70;;;;;;;19.62;55.32;100716.56;4929190;28;120239;-76
2022/11/01 11:51:31;;;;;;;12.43;2.70;;;;;;;19.54;54.97;100723.16;4931494;28;119556;-77
2022/11/01 11:54:31;;;;;;;15.00;2.65;;;;;;;19.49;55.15;100729.50;4935056;28;120013;-77
2022/11/01 11:57:18;;;;;;;11.98;3.20;;;;;;;19.39;55.20;100731.03;4927685;28;120241;-77
2022/11/01 11:59:45;;;;;;;14.15;3.40;;;;;;;19.38;55.69;100744.16;4930672;28;119511;-77
2022/11/01 12:02:36;;;;;;;19.27;3.33;;;;;;;19.34;54.62;100749.25;4929337;28;120300;-77
2022/11/01 12:05:07;;;;;;;22.00;3.75;;;;;;;19.29;54.54;100744.47;4927978;28;120012;-76
2022/11/01 12:07:38;;;;;;;21.83;4.55;;;;;;;19.22;55.14;100745.00;4912700;28;121360;-77
2022/11/01 12:10:06;;;;;;;19.17;3.08;;;;;;;19.15;54.76;100746.25;4910057;28;120659;-77
2022/11/01 12:12:39;;;;;;;22.08;4.13;;;;;;;19.19;54.59;100752.31;4927982;28;119501;-76
2022/11/01 12:15:25;;;;;;;24.30;4.57;;;;;;;19.14;54.19;100746.75;4913180;28;119733;-77
2022/11/01 12:17:52;;;;;;;20.13;3.85;;;;;;;19.11;55.26;100754.09;4915029;28;120127;-77
2022/11/01 12:20:25;;;;;;;18.80;3.83;;;;;;;19.10;55.20;100749.03;4911772;28;119907;-77
2022/11/01 12:23:11;;;;;;;17.25;4.00;;;;;;;19.12;54.71;100754.84;4908930;28;120333;-77
2022/11/01 12:25:40;;;;;;;23.30;4.05;;;;;;;19.01;54.66;100736.19;4896122;28;120118;-77